Time;durP1;ratioP1;P1;durP2;ratioP2;P2;SDS_P1;SDS_P2;PMS_P1;PMS_P2;Temp;Humidity;BMP_temperature;BMP_pressure;BME280_temperature;BME280_humidity;BME280_pressure;Samples;Min_cycle;Max_cycle;Signal;HPM_P1;HPM_P2
2022/04/19 00:00:28;;;;;;;0.70;0.70;;;6.80;99.90;;;;;;5250810;28;20024;-78
2022/04/19 00:03:00;;;;;;;0.90;0.90;;;6.80;99.90;;;;;;5268117;28;20031;-76
2022/04/19 00:05:37;;;;;;;0.70;0.70;;;6.80;99.90;;;;;;5228738;28;20056;-78
2022/04/19 00:08:10;;;;;;;0.70;0.70;;;6.80;99.90;;;;;;5249189;28;20034;-76
2022/04/19 00:10:43;;;;;;;0.60;0.60;;;6.80;99.90;;;;;;5274277;28;20034;-77
2022/04/19 00:13:19;;;;;;;0.70;0.70;;;6.70;99.90;;;;;;5260069;28;20369;-77
2022/04/19 00:15:51;;;;;;;0.93;0.93;;;6.80;99.90;;;;;;5238364;28;20531;-78
2022/04/19 00:18:25;;;;;;;1.10;1.10;;;6.80;99.90;;;;;;5280607;28;20022;-75
2022/04/19 00:20:56;;;;;;;1.50;1.40;;;6.80;99.90;;;;;;5253544;28;20048;-78
2022/04/19 00:23:28;;;;;;;1.63;1.52;;;6.80;99.90;;;;;;5287690;28;20042;-78
2022/04/19 00:26:03;;;;;;;0.50;0.50;;;6.80;99.90;;;;;;5248045;28;20040;-78
2022/04/19 00:28:34;;;;;;;0.60;0.60;;;6.80;99.90;;;;;;5271860;28;20090;-78
2022/04/19 00:31:06;;;;;;;0.60;0.60;;;6.70;99.90;;;;;;5274678;28;20024;-77
2022/04/19 00:33:44;;;;;;;0.90;0.90;;;6.70;99.90;;;;;;5243579;28;20344;-77
2022/04/19 00:36:18;;;;;;;0.43;0.43;;;6.70;99.90;;;;;;5261440;28;20047;-77
2022/04/19 00:38:49;;;;;;;0.73;0.73;;;6.80;99.90;;;;;;5271800;28;20202;-78
2022/04/19 00:41:23;;;;;;;0.60;0.60;;;6.80;99.90;;;;;;5248901;28;20032;-78
2022/04/19 00:43:55;;;;;;;0.93;0.93;;;6.80;99.90;;;;;;5270827;28;20036;-78
2022/04/19 00:46:30;;;;;;;1.17;1.17;;;6.90;99.90;;;;;;5272621;28;20042;-78
2022/04/19 00:49:02;;;;;;;0.85;0.85;;;7.00;99.90;;;;;;5254278;28;20042;-77
2022/04/19 00:51:36;;;;;;;0.80;0.80;;;7.20;99.90;;;;;;5254596;28;20023;-79
2022/04/19 00:54:11;;;;;;;0.65;0.65;;;7.30;99.90;;;;;;5268519;28;20048;-77
2022/04/19 00:56:48;;;;;;;0.70;0.70;;;7.50;99.90;;;;;;5252180;28;20038;-78
2022/04/19 00:59:24;;;;;;;0.95;0.95;;;7.60;99.90;;;;;;5254014;28;20550;-77
2022/04/19 01:01:56;;;;;;;1.38;1.38;;;7.60;99.90;;;;;;5271440;28;20036;-76
2022/04/19 01:04:33;;;;;;;0.70;0.70;;;7.70;99.90;;;;;;5243098;28;20036;-78
2022/04/19 01:07:08;;;;;;;0.82;0.82;;;7.70;99.90;;;;;;5269240;28;20026;-76
2022/04/19 01:09:41;;;;;;;0.73;0.73;;;7.70;99.90;;;;;;5263114;28;20214;-78
2022/04/19 01:15:11;;;;;;;0.80;0.80;;;7.70;99.90;;;;;;5261736;28;20546;-77
2022/04/19 01:17:43;;;;;;;0.70;0.70;;;7.70;99.90;;;;;;5262304;28;20023;-78
2022/04/19 01:20:23;;;;;;;2.25;2.15;;;7.60;99.90;;;;;;5291832;28;20026;-78
2022/04/19 01:22:54;;;;;;;1.00;1.00;;;7.60;99.90;;;;;;5290793;28;20031;-78
2022/04/19 01:25:26;;;;;;;0.50;0.50;;;7.60;99.90;;;;;;5285711;28;20466;-78
2022/04/19 01:27:57;;;;;;;0.80;0.80;;;7.60;99.90;;;;;;5268760;28;20020;-78
2022/04/19 01:30:31;;;;;;;0.60;0.60;;;7.50;99.90;;;;;;5250817;28;20028;-80
2022/04/19 01:33:02;;;;;;;1.10;1.10;;;7.50;99.90;;;;;;5249192;28;20031;-79
2022/04/19 01:35:59;;;;;;;0.95;0.95;;;7.50;99.90;;;;;;5268107;28;20047;-79
2022/04/19 01:38:33;;;;;;;1.23;1.23;;;7.50;99.90;;;;;;5202217;28;20033;-79
2022/04/19 01:41:08;;;;;;;0.93;0.93;;;7.50;99.90;;;;;;5202821;28;20030;-79
2022/04/19 01:43:44;;;;;;;0.88;0.88;;;7.50;99.90;;;;;;5203916;28;20051;-79
2022/04/19 01:46:20;;;;;;;1.45;1.35;;;7.40;99.90;;;;;;5186132;28;20041;-79
2022/04/19 01:48:51;;;;;;;1.00;1.00;;;7.20;99.90;;;;;;5186935;28;20049;-79
2022/04/19 01:51:27;;;;;;;0.60;0.60;;;7.20;99.90;;;;;;5202915;28;20068;-80
2022/04/19 01:54:02;;;;;;;0.80;0.80;;;7.20;99.90;;;;;;5183320;28;20046;-77
2022/04/19 01:56:36;;;;;;;0.90;0.90;;;7.30;99.90;;;;;;5193838;28;20048;-79
2022/04/19 01:59:12;;;;;;;0.90;0.90;;;7.40;99.90;;;;;;5182757;28;20106;-78
2022/04/19 02:01:44;;;;;;;0.70;0.70;;;7.30;99.90;;;;;;5203246;28;20343;-78
2022/04/19 02:04:15;;;;;;;0.80;0.80;;;7.30;99.90;;;;;;5194426;28;20021;-78
2022/04/19 02:06:47;;;;;;;0.70;0.70;;;7.20;99.90;;;;;;5179683;28;20040;-79
2022/04/19 02:09:24;;;;;;;0.73;0.73;;;7.10;99.90;;;;;;5200198;28;20033;-78
2022/04/19 02:11:56;;;;;;;1.23;1.23;;;7.10;99.90;;;;;;5206802;28;20038;-76
2022/04/19 02:14:30;;;;;;;0.80;0.80;;;7.20;99.90;;;;;;5187974;28;20026;-78
2022/04/19 02:17:07;;;;;;;0.90;0.90;;;7.10;99.90;;;;;;5229575;28;20451;-77
2022/04/19 02:19:45;;;;;;;0.60;0.60;;;7.20;99.90;;;;;;5273901;28;20035;-77
2022/04/19 02:22:23;;;;;;;0.70;0.70;;;7.10;99.90;;;;;;5259325;28;20044;-78
2022/04/19 02:24:57;;;;;;;0.95;0.95;;;7.20;99.90;;;;;;5228911;28;20038;-78
2022/04/19 02:27:31;;;;;;;0.93;0.93;;;7.20;99.90;;;;;;5228741;28;20031;-78
2022/04/19 02:30:04;;;;;;;0.80;0.80;;;7.30;99.90;;;;;;5245816;28;20032;-77
2022/04/19 02:32:36;;;;;;;0.63;0.63;;;7.30;99.90;;;;;;5229138;28;20036;-78
2022/04/19 02:35:09;;;;;;;1.38;1.27;;;7.30;99.90;;;;;;5265990;28;20038;-77
2022/04/19 02:37:59;;;;;;;0.70;0.70;;;7.40;99.90;;;;;;5242655;28;20038;-79
2022/04/19 02:40:31;;;;;;;0.50;0.50;;;7.30;99.90;;;;;;5242294;28;20480;-77
2022/04/19 02:43:03;;;;;;;0.70;0.70;;;7.40;99.90;;;;;;5247306;28;20377;-76
2022/04/19 02:45:39;;;;;;;1.02;1.02;;;7.40;99.90;;;;;;5267312;28;20027;-77
2022/04/19 02:48:11;;;;;;;0.70;0.70;;;7.40;99.90;;;;;;5249469;28;20028;-77
2022/04/19 02:50:45;;;;;;;0.60;0.60;;;7.50;99.90;;;;;;5213542;28;20044;-80
2022/04/19 02:53:19;;;;;;;0.90;0.90;;;7.50;99.90;;;;;;5230335;28;20138;-78
2022/04/19 02:55:51;;;;;;;0.93;0.93;;;7.50;99.90;;;;;;5225459;28;20032;-78
2022/04/19 02:58:25;;;;;;;1.10;1.10;;;7.50;99.90;;;;;;5264911;28;20020;-78
2022/04/19 03:00:59;;;;;;;0.88;0.88;;;7.50;99.90;;;;;;5289011;28;20015;-79
2022/04/19 03:03:33;;;;;;;0.70;0.70;;;7.50;99.90;;;;;;5273248;28;20632;-79
2022/04/19 03:06:07;;;;;;;0.70;0.70;;;7.30;99.90;;;;;;5242581;28;20060;-78
2022/04/19 03:08:41;;;;;;;0.70;0.70;;;7.30;99.90;;;;;;5227994;28;20032;-79
2022/04/19 03:11:18;;;;;;;0.95;0.95;;;7.20;99.90;;;;;;5249828;28;20028;-79
2022/04/19 03:13:49;;;;;;;0.52;0.52;;;7.10;99.90;;;;;;5248844;28;20219;-79
2022/04/19 03:16:24;;;;;;;0.70;0.70;;;6.90;99.90;;;;;;5267244;28;20020;-79
2022/04/19 03:18:56;;;;;;;0.90;0.90;;;6.90;99.90;;;;;;5266681;28;20028;-78
2022/04/19 03:21:30;;;;;;;0.73;0.73;;;6.80;99.90;;;;;;5270008;28;20023;-79
2022/04/19 03:29:41;;;;;;;0.80;0.80;;;6.80;99.90;;;;;;5245961;28;20033;-79
2022/04/19 03:32:19;;;;;;;1.25;1.25;;;6.70;99.90;;;;;;5234941;28;20025;-79
2022/04/19 03:34:51;;;;;;;0.50;0.50;;;6.70;99.90;;;;;;5251398;28;20322;-78
2022/04/19 03:37:25;;;;;;;0.70;0.70;;;6.80;99.90;;;;;;5212761;28;20039;-78
2022/04/19 03:39:59;;;;;;;;;;;6.80;99.90;;;;;;5229329;28;20021;-77
2022/04/19 03:42:31;;;;;;;0.63;0.63;;;6.80;99.90;;;;;;5267273;28;19911;-79
2022/04/19 03:45:08;;;;;;;0.60;0.60;;;6.80;99.90;;;;;;5254417;28;20039;-78
2022/04/19 03:47:39;;;;;;;0.60;0.60;;;6.80;99.90;;;;;;5294769;28;20065;-78
2022/04/19 03:50:14;;;;;;;0.68;0.68;;;6.80;99.90;;;;;;5298576;28;20038;-78
2022/04/19 03:52:49;;;;;;;1.10;1.10;;;6.70;99.90;;;;;;5279764;28;20026;-78
2022/04/19 03:55:23;;;;;;;1.58;1.48;;;6.70;99.90;;;;;;5277331;28;20049;-78
2022/04/19 03:57:55;;;;;;;0.80;0.80;;;6.70;99.90;;;;;;5255002;28;20027;-78
2022/04/19 04:00:26;;;;;;;1.10;1.10;;;6.70;99.90;;;;;;5271989;28;20485;-78
2022/04/19 04:03:01;;;;;;;1.10;1.10;;;6.70;99.90;;;;;;5261685;28;20046;-78
2022/04/19 04:05:36;;;;;;;0.77;0.77;;;6.70;99.90;;;;;;5252823;28;20087;-78
2022/04/19 04:08:08;;;;;;;1.00;1.00;;;6.70;99.90;;;;;;5290827;28;20063;-78
2022/04/19 04:10:43;;;;;;;0.63;0.63;;;6.70;99.90;;;;;;5291732;28;20024;-78
2022/04/19 04:13:16;;;;;;;;;;;6.70;99.90;;;;;;5272855;28;20024;-77
2022/04/19 04:15:47;;;;;;;0.65;0.65;;;6.60;99.90;;;;;;5273069;28;19900;-79
2022/04/19 04:18:21;;;;;;;0.80;0.80;;;6.70;99.90;;;;;;5271311;28;20032;-78
2022/04/19 04:20:52;;;;;;;1.75;1.67;;;6.70;99.90;;;;;;5271702;28;20022;-78
2022/04/19 04:23:26;;;;;;;0.80;0.80;;;6.70;99.90;;;;;;5252096;28;20027;-78
2022/04/19 04:26:10;;;;;;;0.75;0.75;;;6.70;99.90;;;;;;5270844;28;20012;-78
2022/04/19 04:28:41;;;;;;;0.73;0.73;;;6.70;99.90;;;;;;5270700;28;20016;-79
2022/04/19 04:31:13;;;;;;;0.90;0.90;;;6.70;99.90;;;;;;5251532;28;20408;-76
2022/04/19 04:33:45;;;;;;;1.00;1.00;;;6.70;99.90;;;;;;5253094;28;20318;-78
2022/04/19 04:36:16;;;;;;;1.17;1.17;;;6.80;99.90;;;;;;5234808;28;20027;-80
2022/04/19 04:38:50;;;;;;;0.60;0.60;;;6.90;99.90;;;;;;5252545;28;20026;-77
2022/04/19 04:41:29;;;;;;;0.70;0.70;;;6.90;99.90;;;;;;5236248;28;20032;-78
2022/04/19 04:44:03;;;;;;;0.80;0.80;;;6.90;99.90;;;;;;5254587;28;20102;-78
2022/04/19 04:49:41;;;;;;;0.70;0.70;;;7.00;99.90;;;;;;5288617;28;20034;-79
2022/04/19 04:52:15;;;;;;;1.35;1.33;;;7.10;99.90;;;;;;5254970;28;20389;-79
2022/04/19 04:54:51;;;;;;;0.50;0.50;;;7.20;99.90;;;;;;5231333;28;20042;-79
2022/04/19 04:57:22;;;;;;;1.25;1.25;;;7.20;99.90;;;;;;5267987;28;20042;-78
2022/04/19 04:59:57;;;;;;;2.35;2.15;;;7.30;99.90;;;;;;5269453;28;20012;-78
2022/04/19 05:02:29;;;;;;;0.85;0.85;;;7.40;99.90;;;;;;5250707;28;20031;-79
2022/04/19 05:05:03;;;;;;;0.70;0.70;;;7.50;99.90;;;;;;5223848;28;20054;-77
2022/04/19 05:07:37;;;;;;;0.88;0.88;;;7.50;99.90;;;;;;5234022;28;20024;-80
2022/04/19 05:10:09;;;;;;;1.15;1.15;;;7.50;99.90;;;;;;5268409;28;20393;-78
2022/04/19 05:12:40;;;;;;;1.42;1.42;;;7.70;99.90;;;;;;5251321;28;20040;-80
2022/04/19 05:15:12;;;;;;;0.85;0.85;;;7.60;99.90;;;;;;5233259;28;20032;-78
2022/04/19 05:17:46;;;;;;;1.30;0.95;;;7.40;99.90;;;;;;5267992;28;20178;-78
2022/04/19 05:20:20;;;;;;;1.17;1.17;;;7.40;99.90;;;;;;5251062;28;20915;-78
2022/04/19 05:22:55;;;;;;;1.40;1.40;;;7.30;99.90;;;;;;5250985;28;20040;-79
2022/04/19 05:25:29;;;;;;;0.70;0.70;;;7.30;99.90;;;;;;5248093;28;20040;-79
2022/04/19 05:28:03;;;;;;;0.90;0.90;;;7.30;99.90;;;;;;5247888;28;20039;-78
2022/04/19 05:30:46;;;;;;;0.85;0.85;;;7.40;99.90;;;;;;5249654;28;20054;-82
2022/04/19 05:33:18;;;;;;;0.70;0.70;;;7.40;99.90;;;;;;5269465;28;20036;-78
2022/04/19 05:35:51;;;;;;;0.77;0.77;;;7.40;99.90;;;;;;5269162;28;20026;-78
2022/04/19 05:38:22;;;;;;;1.40;1.40;;;7.30;99.90;;;;;;5240569;28;20028;-77
2022/04/19 05:40:58;;;;;;;0.60;0.60;;;7.20;99.90;;;;;;5270785;28;20050;-78
2022/04/19 05:43:32;;;;;;;0.75;0.75;;;7.30;99.90;;;;;;5250399;28;20028;-79
2022/04/19 05:46:09;;;;;;;0.88;0.88;;;7.30;99.90;;;;;;5249995;28;20032;-78
2022/04/19 05:48:46;;;;;;;0.85;0.85;;;7.30;99.90;;;;;;5265104;28;20065;-78
2022/04/19 05:51:20;;;;;;;0.70;0.70;;;7.30;99.90;;;;;;5229547;28;20042;-78
2022/04/19 05:53:54;;;;;;;1.00;1.00;;;7.30;99.90;;;;;;5263594;28;20034;-79
2022/04/19 05:56:30;;;;;;;0.70;0.70;;;7.30;99.90;;;;;;5267093;28;20395;-78
2022/04/19 05:59:05;;;;;;;0.98;0.98;;;7.40;99.90;;;;;;5266105;28;20030;-80
2022/04/19 06:07:27;;;;;;;0.90;0.90;;;7.70;99.90;;;;;;5268498;28;20023;-78
2022/04/19 06:10:03;;;;;;;0.90;0.90;;;7.90;99.90;;;;;;5248521;28;20035;-77
2022/04/19 06:12:35;;;;;;;0.80;0.80;;;7.60;99.90;;;;;;5237111;28;20349;-77
2022/04/19 06:15:07;;;;;;;0.73;0.73;;;7.40;99.90;;;;;;5232548;28;20042;-80
2022/04/19 06:17:41;;;;;;;1.25;1.25;;;7.00;99.90;;;;;;5266702;28;20034;-78
2022/04/19 06:20:12;;;;;;;0.80;0.80;;;6.80;99.90;;;;;;5267799;28;20024;-78
2022/04/19 06:22:49;;;;;;;0.90;0.90;;;6.70;99.90;;;;;;5264537;28;20032;-78
2022/04/19 06:25:20;;;;;;;0.70;0.70;;;6.70;99.90;;;;;;5238273;28;20575;-77
2022/04/19 06:27:58;;;;;;;0.70;0.70;;;6.70;99.90;;;;;;5261890;28;20024;-77
2022/04/19 06:30:33;;;;;;;0.73;0.73;;;6.60;99.90;;;;;;5244639;28;20024;-81
2022/04/19 06:33:04;;;;;;;0.77;0.77;;;6.70;99.90;;;;;;5231061;28;20050;-80
2022/04/19 06:35:36;;;;;;;0.93;0.93;;;6.70;99.90;;;;;;5242953;28;20036;-79
2022/04/19 06:38:08;;;;;;;1.40;1.40;;;6.70;99.90;;;;;;5249627;28;20044;-80
2022/04/19 06:40:40;;;;;;;0.47;0.47;;;6.40;99.90;;;;;;5238426;28;20468;-79
2022/04/19 06:43:17;;;;;;;0.60;0.60;;;6.30;99.90;;;;;;5237500;28;20024;-77
2022/04/19 06:45:51;;;;;;;0.90;0.90;;;6.30;99.90;;;;;;5246364;28;20627;-78
2022/04/19 06:48:25;;;;;;;0.90;0.90;;;6.30;99.90;;;;;;5245439;28;20044;-78
2022/04/19 06:51:00;;;;;;;;;;;6.20;99.90;;;;;;5223625;28;20047;-78
2022/04/19 06:53:39;;;;;;;1.95;1.85;;;6.20;99.90;;;;;;5254468;28;19912;-78
2022/04/19 06:56:11;;;;;;;0.90;0.90;;;6.10;99.90;;;;;;5236490;28;20433;-79
2022/04/19 06:58:48;;;;;;;0.77;0.77;;;6.20;99.90;;;;;;5225951;28;20031;-78
2022/04/19 07:01:26;;;;;;;0.65;0.65;;;6.10;99.90;;;;;;5246908;28;20195;-78
2022/04/19 07:04:00;;;;;;;0.70;0.70;;;6.00;99.90;;;;;;5237744;28;20027;-76
2022/04/19 07:06:34;;;;;;;0.90;0.90;;;6.10;99.90;;;;;;5188696;28;20045;-77
2022/04/19 07:09:06;;;;;;;0.68;0.68;;;6.00;99.90;;;;;;5199216;28;20037;-78
2022/04/19 07:11:37;;;;;;;0.80;0.80;;;6.00;99.90;;;;;;5213871;28;20047;-78
2022/04/19 07:14:10;;;;;;;0.85;0.85;;;6.10;99.90;;;;;;5223915;28;20063;-76
2022/04/19 07:16:43;;;;;;;1.35;1.35;;;6.20;99.90;;;;;;5205154;28;20035;-78
2022/04/19 07:19:17;;;;;;;0.90;0.90;;;6.30;99.90;;;;;;5208933;28;20022;-78
2022/04/19 07:27:33;;;;;;;1.10;1.10;;;6.40;99.90;;;;;;5209007;28;20033;-79
2022/04/19 07:30:06;;;;;;;0.77;0.77;;;6.50;99.90;;;;;;5217128;28;20041;-79
2022/04/19 07:32:41;;;;;;;0.80;0.80;;;6.50;99.90;;;;;;5204613;28;20108;-78
2022/04/19 07:35:12;;;;;;;;;;;6.80;99.90;;;;;;5199886;28;20041;-78
2022/04/19 07:37:44;;;;;;;0.80;0.80;;;7.20;99.90;;;;;;5208715;28;19913;-76
2022/04/19 07:40:15;;;;;;;0.88;0.88;;;7.40;99.90;;;;;;5226323;28;20039;-78
2022/04/19 07:42:47;;;;;;;0.90;0.90;;;7.40;99.90;;;;;;5226505;28;20017;-77
2022/04/19 07:45:19;;;;;;;0.73;0.73;;;7.30;99.90;;;;;;5158833;28;20037;-79
2022/04/19 07:47:53;;;;;;;0.90;0.90;;;7.50;99.90;;;;;;5207838;28;20071;-78
2022/04/19 07:50:24;;;;;;;0.80;0.80;;;7.50;99.90;;;;;;5208312;28;20045;-78
2022/04/19 07:52:57;;;;;;;0.80;0.80;;;7.20;99.90;;;;;;5206957;28;20043;-78
2022/04/19 07:55:29;;;;;;;1.05;1.05;;;7.20;99.90;;;;;;5221744;28;20327;-79
2022/04/19 07:58:01;;;;;;;0.93;0.93;;;7.20;99.90;;;;;;5224953;28;20340;-79
2022/04/19 08:00:33;;;;;;;0.75;0.75;;;6.90;99.90;;;;;;5211868;28;20024;-79
2022/04/19 08:03:07;;;;;;;0.70;0.70;;;6.80;99.90;;;;;;5237664;28;20025;-80
2022/04/19 08:05:41;;;;;;;1.00;1.00;;;6.60;99.90;;;;;;5212396;28;20052;-79
2022/04/19 08:08:16;;;;;;;0.88;0.88;;;6.80;99.90;;;;;;5190957;28;20025;-78
2022/04/19 08:10:51;;;;;;;1.30;1.30;;;7.10;99.90;;;;;;5190594;28;20043;-79
2022/04/19 08:13:22;;;;;;;0.90;0.90;;;7.10;99.90;;;;;;5207640;28;20040;-78
2022/04/19 08:15:58;;;;;;;1.17;1.17;;;7.10;99.90;;;;;;5206796;28;20032;-76
2022/04/19 08:18:30;;;;;;;1.15;1.15;;;7.10;99.90;;;;;;5212436;28;20032;-78
2022/04/19 08:21:04;;;;;;;0.95;0.95;;;7.10;99.90;;;;;;5246488;28;20067;-80
2022/04/19 08:23:44;;;;;;;1.08;1.08;;;6.90;99.90;;;;;;5245674;28;20050;-78
2022/04/19 08:26:15;;;;;;;1.00;1.00;;;6.60;99.90;;;;;;5236417;28;20067;-78
2022/04/19 08:28:47;;;;;;;0.68;0.68;;;6.50;99.90;;;;;;5248434;28;20034;-79
2022/04/19 08:31:19;;;;;;;0.70;0.70;;;6.50;99.90;;;;;;5230273;28;20032;-80
2022/04/19 08:33:52;;;;;;;0.75;0.75;;;6.50;99.90;;;;;;5250360;28;20035;-77
2022/04/19 08:36:26;;;;;;;1.13;1.13;;;6.60;99.90;;;;;;5233663;28;20509;-78
2022/04/19 08:38:58;;;;;;;;;;;6.70;99.90;;;;;;5228428;28;20281;-80
2022/04/19 08:41:33;;;;;;;1.58;1.55;;;6.80;99.90;;;;;;5212070;28;19913;-78
2022/04/19 08:44:05;;;;;;;0.85;0.85;;;6.80;99.90;;;;;;5233539;28;20551;-78
2022/04/19 08:46:43;;;;;;;0.52;0.52;;;6.80;99.90;;;;;;5250777;28;20027;-77
2022/04/19 08:49:37;;;;;;;0.73;0.73;;;6.80;99.90;;;;;;5250443;28;20032;-79
2022/04/19 08:52:14;;;;;;;0.57;0.57;;;6.70;99.90;;;;;;5245533;28;20207;-80
2022/04/19 08:57:40;;;;;;;1.13;1.13;;;7.00;99.90;;;;;;5229684;28;20017;-79
2022/04/19 09:00:12;;;;;;;1.20;1.20;;;7.20;99.90;;;;;;5227810;28;20398;-78
2022/04/19 09:02:49;;;;;;;0.60;0.60;;;7.10;99.90;;;;;;5230683;28;20374;-79
2022/04/19 09:05:26;;;;;;;1.55;1.45;;;7.10;99.90;;;;;;5217369;28;20424;-78
2022/04/19 09:07:58;;;;;;;0.93;0.93;;;7.20;99.90;;;;;;5226631;28;20040;-77
2022/04/19 09:10:35;;;;;;;0.95;0.95;;;7.40;99.90;;;;;;5214719;28;20029;-77
2022/04/19 09:13:09;;;;;;;0.73;0.73;;;7.50;99.90;;;;;;5244929;28;20036;-79
2022/04/19 09:15:47;;;;;;;0.90;0.90;;;7.60;99.90;;;;;;5245006;28;20032;-79
2022/04/19 09:18:33;;;;;;;1.48;1.38;;;7.90;99.90;;;;;;5225969;28;20387;-78
2022/04/19 09:21:05;;;;;;;1.08;1.08;;;7.80;99.90;;;;;;5229329;28;20272;-79
2022/04/19 09:23:39;;;;;;;0.73;0.73;;;7.70;99.90;;;;;;5229768;28;20028;-76
2022/04/19 09:26:13;;;;;;;1.33;1.33;;;7.40;99.90;;;;;;5249966;28;20217;-78
2022/04/19 09:28:52;;;;;;;1.30;1.20;;;7.30;99.90;;;;;;5248302;28;20031;-79
2022/04/19 09:31:30;;;;;;;0.70;0.70;;;7.20;99.90;;;;;;5248860;28;20036;-79
2022/04/19 09:34:04;;;;;;;0.85;0.85;;;7.10;99.90;;;;;;5247003;28;20038;-77
2022/04/19 09:36:36;;;;;;;1.10;1.10;;;7.00;99.90;;;;;;5247463;28;20535;-79
2022/04/19 09:39:34;;;;;;;0.88;0.88;;;6.80;99.90;;;;;;5242994;28;20288;-78
2022/04/19 09:42:14;;;;;;;0.70;0.70;;;6.60;99.90;;;;;;5242039;28;20153;-78
2022/04/19 09:44:56;;;;;;;1.20;1.20;;;6.40;99.90;;;;;;5216330;28;20036;-79
2022/04/19 09:47:36;;;;;;;0.80;0.80;;;6.30;99.90;;;;;;5238566;28;20032;-79
2022/04/19 09:50:12;;;;;;;0.77;0.77;;;6.10;99.90;;;;;;5209454;28;20033;-78
2022/04/19 09:52:51;;;;;;;0.70;0.70;;;6.00;99.90;;;;;;5237607;28;20056;-76
2022/04/19 09:55:29;;;;;;;0.60;0.60;;;5.90;99.90;;;;;;5224445;28;20033;-76
2022/04/19 09:58:02;;;;;;;0.80;0.80;;;6.10;99.90;;;;;;5231045;28;20371;-76
2022/04/19 10:00:33;;;;;;;2.83;1.67;;;6.30;99.90;;;;;;5222729;28;20040;-75
2022/04/19 10:08:46;;;;;;;0.70;0.70;;;6.30;99.90;;;;;;5237764;28;20146;-78
2022/04/19 10:11:18;;;;;;;0.70;0.70;;;6.40;99.90;;;;;;5223535;28;20028;-77
2022/04/19 10:13:53;;;;;;;0.88;0.88;;;6.40;99.90;;;;;;5216462;28;20282;-78
2022/04/19 10:16:33;;;;;;;2.35;2.20;;;6.30;99.90;;;;;;5235804;28;20036;-78
2022/04/19 10:19:13;;;;;;;0.80;0.80;;;6.30;99.90;;;;;;5231241;28;20033;-76
2022/04/19 10:21:49;;;;;;;0.88;0.88;;;6.30;99.90;;;;;;5201880;28;20349;-76
2022/04/19 10:24:21;;;;;;;0.90;0.90;;;6.30;99.90;;;;;;5238078;28;20261;-77
2022/04/19 10:26:58;;;;;;;1.05;1.05;;;6.30;99.90;;;;;;5244326;28;20039;-78
2022/04/19 10:29:33;;;;;;;0.70;0.70;;;6.20;99.90;;;;;;5229498;28;20200;-75
2022/04/19 10:32:11;;;;;;;0.68;0.68;;;6.10;99.90;;;;;;5205162;28;20278;-77
2022/04/19 10:34:50;;;;;;;1.15;1.15;;;6.00;99.90;;;;;;5206408;28;20387;-78
2022/04/19 10:37:24;;;;;;;1.00;1.00;;;6.00;99.90;;;;;;5219705;28;20250;-79
2022/04/19 10:39:58;;;;;;;0.70;0.70;;;6.10;99.90;;;;;;5231752;28;20008;-75
2022/04/19 10:42:34;;;;;;;0.80;0.80;;;6.10;99.90;;;;;;5224330;28;20483;-77
2022/04/19 10:45:14;;;;;;;0.77;0.77;;;6.10;99.90;;;;;;5234514;28;20295;-78
2022/04/19 10:47:51;;;;;;;0.70;0.70;;;6.00;99.90;;;;;;5247202;28;20028;-79
2022/04/19 10:50:40;;;;;;;1.48;1.45;;;5.60;99.90;;;;;;5228693;28;20054;-79
2022/04/19 10:53:16;;;;;;;0.57;0.57;;;5.60;99.90;;;;;;5209169;28;20033;-77
2022/04/19 10:55:53;;;;;;;0.47;0.47;;;5.70;99.90;;;;;;5213575;28;20032;-78
2022/04/19 10:58:44;;;;;;;0.63;0.63;;;5.80;99.90;;;;;;5226594;28;20099;-79
2022/04/19 11:01:31;;;;;;;0.65;0.65;;;5.90;99.90;;;;;;5230135;28;20023;-79
2022/04/19 11:04:03;;;;;;;0.75;0.75;;;5.90;99.90;;;;;;5246395;28;20541;-79
2022/04/19 11:06:43;;;;;;;0.50;0.50;;;5.60;99.90;;;;;;5235086;28;20040;-79
2022/04/19 11:09:26;;;;;;;0.60;0.60;;;5.60;99.90;;;;;;5246999;28;20603;-79
2022/04/19 11:12:10;;;;;;;0.55;0.55;;;5.70;99.90;;;;;;5245427;28;20050;-77
2022/04/19 11:14:46;;;;;;;2.03;1.92;;;5.90;99.90;;;;;;5226033;28;20016;-79
2022/04/19 11:17:32;;;;;;;0.93;0.93;;;6.30;99.90;;;;;;5227489;28;20033;-76
2022/04/19 11:20:14;;;;;;;1.40;1.35;;;6.50;99.90;;;;;;5246821;28;20269;-79
2022/04/19 11:22:48;;;;;;;0.60;0.60;;;6.30;99.90;;;;;;5246193;28;20451;-79
2022/04/19 11:25:39;;;;;;;1.10;1.10;;;6.50;99.90;;;;;;5226373;28;20035;-80
2022/04/19 11:28:13;;;;;;;0.82;0.82;;;6.20;99.90;;;;;;5240398;28;20040;-80
2022/04/19 11:31:08;;;;;;;1.00;1.00;;;6.20;99.90;;;;;;5231416;28;20032;-79
2022/04/19 11:33:44;;;;;;;0.60;0.60;;;6.30;99.90;;;;;;5225922;28;20032;-78
2022/04/19 11:36:19;;;;;;;1.05;1.05;;;6.40;99.90;;;;;;5241627;28;20397;-76
2022/04/19 11:38:53;;;;;;;0.95;0.95;;;6.40;99.90;;;;;;5224684;28;20041;-78
2022/04/19 11:46:58;;;;;;;1.98;1.88;;;6.10;99.90;;;;;;5227550;28;20059;-76
2022/04/19 11:49:36;;;;;;;0.82;0.82;;;6.20;99.90;;;;;;5215427;28;20032;-78
2022/04/19 11:52:13;;;;;;;0.73;0.73;;;6.40;99.90;;;;;;5208053;28;20028;-78
2022/04/19 11:54:44;;;;;;;0.50;0.50;;;6.40;99.90;;;;;;5208413;28;20021;-78
2022/04/19 11:57:18;;;;;;;0.45;0.45;;;6.40;99.90;;;;;;5220029;28;20272;-76
2022/04/19 11:59:55;;;;;;;0.60;0.60;;;6.50;99.90;;;;;;5225946;28;20472;-77
2022/04/19 12:02:29;;;;;;;0.70;0.70;;;6.40;99.90;;;;;;5228151;28;20033;-79
2022/04/19 12:05:03;;;;;;;1.10;1.10;;;6.20;99.90;;;;;;5217922;28;20243;-78
2022/04/19 12:07:49;;;;;;;0.73;0.73;;;6.00;99.90;;;;;;5234219;28;20265;-77
2022/04/19 12:10:22;;;;;;;0.60;0.60;;;6.10;99.90;;;;;;5226965;28;20040;-79
2022/04/19 12:12:53;;;;;;;0.60;0.60;;;5.90;99.90;;;;;;5241487;28;20034;-77
2022/04/19 12:15:41;;;;;;;0.80;0.80;;;6.00;99.90;;;;;;5250149;28;20237;-78
2022/04/19 12:18:31;;;;;;;0.70;0.70;;;6.00;99.90;;;;;;5232093;28;20595;-79
2022/04/19 12:21:04;;;;;;;0.85;0.85;;;6.10;99.90;;;;;;5245190;28;20328;-77
2022/04/19 12:23:37;;;;;;;0.50;0.50;;;6.10;99.90;;;;;;5240165;28;20176;-78
2022/04/19 12:26:11;;;;;;;0.80;0.80;;;5.70;99.90;;;;;;5231089;28;20063;-82
2022/04/19 12:28:45;;;;;;;0.63;0.63;;;5.80;99.90;;;;;;5242637;28;20040;-76
2022/04/19 12:31:58;;;;;;;0.70;0.70;;;5.70;99.90;;;;;;5224397;28;20198;-76
2022/04/19 12:34:43;;;;;;;0.60;0.60;;;5.70;99.90;;;;;;5119469;29;20060;-77
2022/04/19 12:37:18;;;;;;;0.60;0.60;;;5.80;99.90;;;;;;5143479;28;20326;-79
2022/04/19 12:40:01;;;;;;;1.00;1.00;;;5.60;99.90;;;;;;5149937;28;20034;-78
2022/04/19 12:42:52;;;;;;;0.60;0.60;;;5.70;99.90;;;;;;5120197;28;20038;-75
2022/04/19 12:45:37;;;;;;;0.73;0.73;;;6.00;99.90;;;;;;5134580;28;20045;-77
2022/04/19 12:48:19;;;;;;;0.80;0.80;;;6.00;99.90;;;;;;5133676;28;20027;-77
2022/04/19 12:51:06;;;;;;;0.73;0.73;;;6.00;99.90;;;;;;5137986;28;20308;-76
2022/04/19 12:53:40;;;;;;;0.45;0.45;;;5.90;99.90;;;;;;5139315;28;20158;-78
2022/04/19 12:56:12;;;;;;;0.80;0.80;;;6.00;99.90;;;;;;5108609;28;20035;-78
2022/04/19 12:58:49;;;;;;;1.33;1.33;;;6.00;99.90;;;;;;5144411;28;20354;-79
2022/04/19 13:01:22;;;;;;;0.70;0.70;;;5.60;99.90;;;;;;5121722;28;20245;-76
2022/04/19 13:03:53;;;;;;;0.75;0.75;;;5.80;99.90;;;;;;5132869;28;20046;-76
2022/04/19 13:12:19;;;;;;;0.77;0.77;;;6.20;99.90;;;;;;5218922;28;20036;-77
2022/04/19 13:14:55;;;;;;;0.85;0.85;;;6.40;99.90;;;;;;5197275;28;20038;-77
2022/04/19 13:17:32;;;;;;;0.80;0.80;;;6.30;99.90;;;;;;5232091;28;20038;-76
2022/04/19 13:20:04;;;;;;;0.68;0.68;;;5.90;99.90;;;;;;5229328;28;20245;-76
2022/04/19 13:22:42;;;;;;;0.77;0.77;;;5.70;99.90;;;;;;5232989;28;20233;-77
2022/04/19 13:25:16;;;;;;;0.60;0.60;;;5.50;99.90;;;;;;5237957;28;20027;-77
2022/04/19 13:27:47;;;;;;;;;;;5.20;99.90;;;;;;5223115;28;20258;-77
2022/04/19 13:30:21;;;;;;;0.40;0.40;;;5.10;99.90;;;;;;5213454;28;19908;-79
2022/04/19 13:32:55;;;;;;;0.40;0.40;;;5.10;99.90;;;;;;5221366;28;20231;-75
2022/04/19 13:35:30;;;;;;;0.70;0.70;;;4.90;99.90;;;;;;5245079;28;20043;-78
2022/04/19 13:40:55;;;;;;;0.57;0.57;;;4.80;99.90;;;;;;5231715;28;20235;-78
2022/04/19 13:43:27;;;;;;;0.40;0.40;;;4.90;99.90;;;;;;5245095;28;20031;-79
2022/04/19 13:45:58;;;;;;;1.10;1.10;;;4.90;99.90;;;;;;5222366;28;20096;-76
2022/04/19 13:48:30;;;;;;;0.45;0.45;;;4.90;99.90;;;;;;5211919;28;20311;-79
2022/04/19 13:51:01;;;;;;;0.52;0.52;;;4.90;99.90;;;;;;5210263;28;20029;-78
2022/04/19 13:53:33;;;;;;;0.80;0.80;;;4.80;99.90;;;;;;5242351;28;20536;-78
2022/04/19 13:56:13;;;;;;;0.90;0.90;;;5.00;99.90;;;;;;5246402;28;20032;-77
2022/04/19 13:58:50;;;;;;;0.85;0.85;;;5.00;99.90;;;;;;5233724;28;20047;-78
2022/04/19 14:01:22;;;;;;;0.68;0.68;;;5.20;99.90;;;;;;5238745;28;20029;-78
2022/04/19 14:03:54;;;;;;;0.60;0.60;;;5.00;99.90;;;;;;5215866;28;20075;-82
2022/04/19 14:06:35;;;;;;;0.55;0.55;;;5.10;99.90;;;;;;5212916;28;20482;-77
2022/04/19 14:09:08;;;;;;;0.70;0.70;;;5.10;99.90;;;;;;5195420;28;20036;-77
2022/04/19 14:11:42;;;;;;;0.70;0.70;;;5.30;99.90;;;;;;5211370;28;20028;-77
2022/04/19 14:14:14;;;;;;;0.77;0.77;;;5.20;99.90;;;;;;5234096;28;20439;-78
2022/04/19 14:16:46;;;;;;;0.52;0.52;;;5.40;99.90;;;;;;5211734;28;20330;-78
2022/04/19 14:19:20;;;;;;;0.55;0.55;;;5.50;99.90;;;;;;5229220;28;20253;-78
2022/04/19 14:21:52;;;;;;;0.60;0.60;;;5.30;99.90;;;;;;5231913;28;20022;-78
2022/04/19 14:24:23;;;;;;;0.35;0.35;;;5.10;99.90;;;;;;5231658;28;20037;-77